sensor_id;sensor_type;location;lat;lon;timestamp;temperature;humidity
53876;DHT22;39789;53.216;5.624;2023-01-08T00:01:44;8.90;99.90
53876;DHT22;39789;53.216;5.624;2023-01-08T00:04:10;9.00;99.90
53876;DHT22;39789;53.216;5.624;2023-01-08T00:06:36;9.60;99.90
53876;DHT22;39789;53.216;5.624;2023-01-08T00:09:01;9.10;99.90
53876;DHT22;39789;53.216;5.624;2023-01-08T00:11:27;9.10;99.90
53876;DHT22;39789;53.216;5.624;2023-01-08T00:13:53;9.10;99.90
53876;DHT22;39789;53.216;5.624;2023-01-08T00:16:19;9.10;99.90
53876;DHT22;39789;53.216;5.624;2023-01-08T00:18:45;9.00;99.90
53876;DHT22;39789;53.216;5.624;2023-01-08T00:21:12;9.00;99.90
53876;DHT22;39789;53.216;5.624;2023-01-08T00:23:38;9.00;99.90
53876;DHT22;39789;53.216;5.624;2023-01-08T00:26:06;9.00;99.90
53876;DHT22;39789;53.216;5.624;2023-01-08T00:28:32;9.00;99.90
53876;DHT22;39789;53.216;5.624;2023-01-08T00:30:58;8.90;99.90
53876;DHT22;39789;53.216;5.624;2023-01-08T00:33:25;8.80;99.90
53876;DHT22;39789;53.216;5.624;2023-01-08T00:35:51;10.30;99.90
53876;DHT22;39789;53.216;5.624;2023-01-08T00:38:17;8.90;99.90
53876;DHT22;39789;53.216;5.624;2023-01-08T00:40:42;8.90;99.90
53876;DHT22;39789;53.216;5.624;2023-01-08T00:43:08;8.90;99.90
53876;DHT22;39789;53.216;5.624;2023-01-08T00:45:34;8.90;99.90
53876;DHT22;39789;53.216;5.624;2023-01-08T00:47:59;8.90;99.90
53876;DHT22;39789;53.216;5.624;2023-01-08T00:50:25;8.80;99.90
53876;DHT22;39789;53.216;5.624;2023-01-08T00:52:51;8.70;99.90
53876;DHT22;39789;53.216;5.624;2023-01-08T00:55:17;8.70;99.90
53876;DHT22;39789;53.216;5.624;2023-01-08T00:57:42;8.70;99.90
53876;DHT22;39789;53.216;5.624;2023-01-08T01:00:10;8.60;99.90
53876;DHT22;39789;53.216;5.624;2023-01-08T01:02:37;8.60;99.90
53876;DHT22;39789;53.216;5.624;2023-01-08T01:05:04;8.60;99.90
53876;DHT22;39789;53.216;5.624;2023-01-08T01:07:30;8.50;99.90
53876;DHT22;39789;53.216;5.624;2023-01-08T01:09:56;8.50;99.90
53876;DHT22;39789;53.216;5.624;2023-01-08T01:12:21;8.50;99.90
53876;DHT22;39789;53.216;5.624;2023-01-08T01:14:47;8.50;99.90
53876;DHT22;39789;53.216;5.624;2023-01-08T01:17:13;8.40;99.90
53876;DHT22;39789;53.216;5.624;2023-01-08T01:19:38;8.40;99.90
53876;DHT22;39789;53.216;5.624;2023-01-08T01:22:04;8.30;99.90
53876;DHT22;39789;53.216;5.624;2023-01-08T01:24:30;8.30;99.90
53876;DHT22;39789;53.216;5.624;2023-01-08T01:26:55;8.30;99.90
53876;DHT22;39789;53.216;5.624;2023-01-08T01:29:22;8.30;99.90
53876;DHT22;39789;53.216;5.624;2023-01-08T01:31:48;8.20;99.90
53876;DHT22;39789;53.216;5.624;2023-01-08T01:34:14;8.20;99.90
53876;DHT22;39789;53.216;5.624;2023-01-08T01:36:39;8.20;99.90
53876;DHT22;39789;53.216;5.624;2023-01-08T01:39:05;8.20;99.90
53876;DHT22;39789;53.216;5.624;2023-01-08T01:41:36;8.10;99.90
53876;DHT22;39789;53.216;5.624;2023-01-08T01:47:26;8.00;99.90
53876;DHT22;39789;53.216;5.624;2023-01-08T01:50:20;8.00;99.90
53876;DHT22;39789;53.216;5.624;2023-01-08T01:53:08;7.90;99.90
53876;DHT22;39789;53.216;5.624;2023-01-08T01:55:37;7.90;99.90
53876;DHT22;39789;53.216;5.624;2023-01-08T01:58:24;7.90;99.90
53876;DHT22;39789;53.216;5.624;2023-01-08T02:00:51;7.80;99.90
53876;DHT22;39789;53.216;5.624;2023-01-08T02:03:21;7.80;99.90
53876;DHT22;39789;53.216;5.624;2023-01-08T02:06:09;7.80;99.90
53876;DHT22;39789;53.216;5.624;2023-01-08T02:09:13;7.80;99.90
53876;DHT22;39789;53.216;5.624;2023-01-08T02:12:04;7.80;99.90
53876;DHT22;39789;53.216;5.624;2023-01-08T02:15:09;7.80;99.90
53876;DHT22;39789;53.216;5.624;2023-01-08T02:17:47;7.70;99.90
53876;DHT22;39789;53.216;5.624;2023-01-08T02:20:24;7.70;99.90
53876;DHT22;39789;53.216;5.624;2023-01-08T02:23:01;7.60;99.90
53876;DHT22;39789;53.216;5.624;2023-01-08T02:28:20;7.50;99.90
53876;DHT22;39789;53.216;5.624;2023-01-08T02:30:47;7.40;99.90
53876;DHT22;39789;53.216;5.624;2023-01-08T02:33:14;7.40;99.90
53876;DHT22;39789;53.216;5.624;2023-01-08T02:35:44;7.30;99.90
53876;DHT22;39789;53.216;5.624;2023-01-08T02:38:15;7.30;99.90
53876;DHT22;39789;53.216;5.624;2023-01-08T02:40:58;7.30;99.90
53876;DHT22;39789;53.216;5.624;2023-01-08T02:43:39;7.30;99.90
53876;DHT22;39789;53.216;5.624;2023-01-08T02:46:11;7.20;99.90
53876;DHT22;39789;53.216;5.624;2023-01-08T02:48:44;7.20;99.90
53876;DHT22;39789;53.216;5.624;2023-01-08T02:54:24;7.20;99.90
53876;DHT22;39789;53.216;5.624;2023-01-08T02:56:56;7.20;99.90
53876;DHT22;39789;53.216;5.624;2023-01-08T02:59:23;7.20;99.90
53876;DHT22;39789;53.216;5.624;2023-01-08T03:01:50;7.30;99.90
53876;DHT22;39789;53.216;5.624;2023-01-08T03:04:18;7.30;99.90
53876;DHT22;39789;53.216;5.624;2023-01-08T03:06:45;7.30;99.90
53876;DHT22;39789;53.216;5.624;2023-01-08T03:09:11;7.30;99.90
53876;DHT22;39789;53.216;5.624;2023-01-08T03:11:45;7.30;99.90
53876;DHT22;39789;53.216;5.624;2023-01-08T03:14:36;7.30;99.90
53876;DHT22;39789;53.216;5.624;2023-01-08T03:17:13;7.30;99.90
53876;DHT22;39789;53.216;5.624;2023-01-08T03:19:52;7.30;99.90
53876;DHT22;39789;53.216;5.624;2023-01-08T03:22:19;7.30;99.90
53876;DHT22;39789;53.216;5.624;2023-01-08T03:24:48;7.30;99.90
53876;DHT22;39789;53.216;5.624;2023-01-08T03:27:21;7.30;99.90
53876;DHT22;39789;53.216;5.624;2023-01-08T03:29:48;7.30;99.90
53876;DHT22;39789;53.216;5.624;2023-01-08T03:32:17;7.40;99.90
53876;DHT22;39789;53.216;5.624;2023-01-08T03:34:46;7.40;99.90
53876;DHT22;39789;53.216;5.624;2023-01-08T03:37:14;7.40;99.90
53876;DHT22;39789;53.216;5.624;2023-01-08T03:40:27;7.40;99.90
53876;DHT22;39789;53.216;5.624;2023-01-08T03:42:32;7.50;99.90
53876;DHT22;39789;53.216;5.624;2023-01-08T03:44:59;7.50;99.90
53876;DHT22;39789;53.216;5.624;2023-01-08T03:47:26;7.50;99.90
53876;DHT22;39789;53.216;5.624;2023-01-08T03:50:00;8.60;99.90
53876;DHT22;39789;53.216;5.624;2023-01-08T03:52:29;7.50;99.90
53876;DHT22;39789;53.216;5.624;2023-01-08T03:54:55;7.70;99.90
53876;DHT22;39789;53.216;5.624;2023-01-08T03:57:21;7.70;99.90
53876;DHT22;39789;53.216;5.624;2023-01-08T03:59:47;7.70;99.90
53876;DHT22;39789;53.216;5.624;2023-01-08T04:02:13;7.70;99.90
53876;DHT22;39789;53.216;5.624;2023-01-08T04:04:39;7.80;99.90
53876;DHT22;39789;53.216;5.624;2023-01-08T04:07:05;7.80;99.90
53876;DHT22;39789;53.216;5.624;2023-01-08T04:09:30;7.80;99.90
53876;DHT22;39789;53.216;5.624;2023-01-08T04:11:56;7.90;99.90
53876;DHT22;39789;53.216;5.624;2023-01-08T04:14:21;7.90;99.90
53876;DHT22;39789;53.216;5.624;2023-01-08T04:16:47;7.90;99.90
53876;DHT22;39789;53.216;5.624;2023-01-08T04:19:13;7.90;99.90
53876;DHT22;39789;53.216;5.624;2023-01-08T04:21:39;7.90;99.90
53876;DHT22;39789;53.216;5.624;2023-01-08T04:24:05;7.90;99.90
53876;DHT22;39789;53.216;5.624;2023-01-08T04:26:31;7.90;99.90
53876;DHT22;39789;53.216;5.624;2023-01-08T04:28:57;8.00;99.90
53876;DHT22;39789;53.216;5.624;2023-01-08T04:31:23;7.90;99.90
53876;DHT22;39789;53.216;5.624;2023-01-08T04:33:48;8.00;99.90
53876;DHT22;39789;53.216;5.624;2023-01-08T04:36:14;8.00;99.90
53876;DHT22;39789;53.216;5.624;2023-01-08T04:38:40;7.80;99.90
53876;DHT22;39789;53.216;5.624;2023-01-08T04:41:06;8.00;99.90
53876;DHT22;39789;53.216;5.624;2023-01-08T04:43:31;8.00;99.90
53876;DHT22;39789;53.216;5.624;2023-01-08T04:45:58;8.00;99.90
53876;DHT22;39789;53.216;5.624;2023-01-08T04:48:25;8.00;99.90
53876;DHT22;39789;53.216;5.624;2023-01-08T04:50:51;8.10;99.90
53876;DHT22;39789;53.216;5.624;2023-01-08T04:53:17;8.10;99.90
53876;DHT22;39789;53.216;5.624;2023-01-08T04:55:43;8.00;99.90
53876;DHT22;39789;53.216;5.624;2023-01-08T04:58:08;8.00;99.90
53876;DHT22;39789;53.216;5.624;2023-01-08T05:00:34;8.00;99.90
53876;DHT22;39789;53.216;5.624;2023-01-08T05:03:00;8.00;99.90
53876;DHT22;39789;53.216;5.624;2023-01-08T05:05:25;8.00;99.90
53876;DHT22;39789;53.216;5.624;2023-01-08T05:07:51;8.00;99.90
53876;DHT22;39789;53.216;5.624;2023-01-08T05:10:17;8.00;99.90
53876;DHT22;39789;53.216;5.624;2023-01-08T05:12:42;8.00;99.90
53876;DHT22;39789;53.216;5.624;2023-01-08T05:15:08;8.00;99.90
53876;DHT22;39789;53.216;5.624;2023-01-08T05:17:34;8.00;99.90
53876;DHT22;39789;53.216;5.624;2023-01-08T05:20:00;7.90;99.90
53876;DHT22;39789;53.216;5.624;2023-01-08T05:22:25;7.90;99.90
53876;DHT22;39789;53.216;5.624;2023-01-08T05:24:51;7.90;99.90
53876;DHT22;39789;53.216;5.624;2023-01-08T05:27:16;7.80;99.90
53876;DHT22;39789;53.216;5.624;2023-01-08T05:29:42;7.70;99.90
53876;DHT22;39789;53.216;5.624;2023-01-08T05:32:16;7.70;99.90
53876;DHT22;39789;53.216;5.624;2023-01-08T05:34:43;7.60;99.90
53876;DHT22;39789;53.216;5.624;2023-01-08T05:37:08;7.60;99.90
53876;DHT22;39789;53.216;5.624;2023-01-08T05:39:34;7.50;99.90
53876;DHT22;39789;53.216;5.624;2023-01-08T05:42:00;7.50;99.90
53876;DHT22;39789;53.216;5.624;2023-01-08T05:44:26;7.50;99.90
53876;DHT22;39789;53.216;5.624;2023-01-08T05:46:52;7.40;99.90
53876;DHT22;39789;53.216;5.624;2023-01-08T05:49:18;7.40;99.90
53876;DHT22;39789;53.216;5.624;2023-01-08T05:51:44;7.40;99.90
53876;DHT22;39789;53.216;5.624;2023-01-08T05:54:09;7.30;99.90
53876;DHT22;39789;53.216;5.624;2023-01-08T05:56:35;7.30;99.90
53876;DHT22;39789;53.216;5.624;2023-01-08T05:59:01;7.30;99.90
53876;DHT22;39789;53.216;5.624;2023-01-08T06:01:26;7.30;99.90
53876;DHT22;39789;53.216;5.624;2023-01-08T06:03:54;7.30;99.90
53876;DHT22;39789;53.216;5.624;2023-01-08T06:06:20;7.30;99.90
53876;DHT22;39789;53.216;5.624;2023-01-08T06:08:46;7.30;99.90
53876;DHT22;39789;53.216;5.624;2023-01-08T06:11:12;7.20;99.90
53876;DHT22;39789;53.216;5.624;2023-01-08T06:13:40;7.20;99.90
53876;DHT22;39789;53.216;5.624;2023-01-08T06:16:07;7.20;99.90
53876;DHT22;39789;53.216;5.624;2023-01-08T06:18:32;7.20;99.90
53876;DHT22;39789;53.216;5.624;2023-01-08T06:20:58;6.90;99.90
53876;DHT22;39789;53.216;5.624;2023-01-08T06:23:24;7.10;99.90
53876;DHT22;39789;53.216;5.624;2023-01-08T06:25:54;7.10;99.90
53876;DHT22;39789;53.216;5.624;2023-01-08T06:28:21;7.10;99.90
53876;DHT22;39789;53.216;5.624;2023-01-08T06:30:46;7.10;99.90
53876;DHT22;39789;53.216;5.624;2023-01-08T06:33:12;7.00;99.90
53876;DHT22;39789;53.216;5.624;2023-01-08T06:35:38;7.00;99.90
53876;DHT22;39789;53.216;5.624;2023-01-08T06:38:03;7.00;99.90
53876;DHT22;39789;53.216;5.624;2023-01-08T06:40:29;7.00;99.90
53876;DHT22;39789;53.216;5.624;2023-01-08T06:42:54;6.90;99.90
53876;DHT22;39789;53.216;5.624;2023-01-08T06:45:20;6.90;99.90
53876;DHT22;39789;53.216;5.624;2023-01-08T06:47:45;6.90;99.90
53876;DHT22;39789;53.216;5.624;2023-01-08T06:50:11;6.90;99.90
53876;DHT22;39789;53.216;5.624;2023-01-08T06:52:37;6.90;99.90
53876;DHT22;39789;53.216;5.624;2023-01-08T06:55:04;6.90;99.90
53876;DHT22;39789;53.216;5.624;2023-01-08T06:57:30;6.90;99.90
53876;DHT22;39789;53.216;5.624;2023-01-08T06:59:56;6.80;99.90
53876;DHT22;39789;53.216;5.624;2023-01-08T07:02:22;6.80;99.90
53876;DHT22;39789;53.216;5.624;2023-01-08T07:04:47;6.80;99.90
53876;DHT22;39789;53.216;5.624;2023-01-08T07:07:14;6.80;99.90
53876;DHT22;39789;53.216;5.624;2023-01-08T07:09:41;6.80;99.90
53876;DHT22;39789;53.216;5.624;2023-01-08T07:12:11;6.70;99.90
53876;DHT22;39789;53.216;5.624;2023-01-08T07:14:36;6.70;99.90
53876;DHT22;39789;53.216;5.624;2023-01-08T07:17:02;6.70;99.90
53876;DHT22;39789;53.216;5.624;2023-01-08T07:19:27;6.70;99.90
53876;DHT22;39789;53.216;5.624;2023-01-08T07:21:53;6.70;99.90
53876;DHT22;39789;53.216;5.624;2023-01-08T07:24:19;6.80;99.90
53876;DHT22;39789;53.216;5.624;2023-01-08T07:26:44;6.80;99.90
53876;DHT22;39789;53.216;5.624;2023-01-08T07:29:10;6.80;99.90
53876;DHT22;39789;53.216;5.624;2023-01-08T07:31:35;6.80;99.90
53876;DHT22;39789;53.216;5.624;2023-01-08T07:34:01;6.80;99.90
53876;DHT22;39789;53.216;5.624;2023-01-08T07:36:26;6.80;99.90
53876;DHT22;39789;53.216;5.624;2023-01-08T07:38:52;6.80;99.90
53876;DHT22;39789;53.216;5.624;2023-01-08T07:41:18;6.80;99.90
53876;DHT22;39789;53.216;5.624;2023-01-08T07:43:45;6.80;99.90
53876;DHT22;39789;53.216;5.624;2023-01-08T07:46:11;6.70;99.90
53876;DHT22;39789;53.216;5.624;2023-01-08T07:48:36;6.70;99.90
53876;DHT22;39789;53.216;5.624;2023-01-08T07:51:06;6.70;99.90
53876;DHT22;39789;53.216;5.624;2023-01-08T07:53:33;6.70;99.90
53876;DHT22;39789;53.216;5.624;2023-01-08T07:56:03;6.70;99.90
53876;DHT22;39789;53.216;5.624;2023-01-08T07:58:30;6.80;99.90
53876;DHT22;39789;53.216;5.624;2023-01-08T08:00:56;6.80;99.90
53876;DHT22;39789;53.216;5.624;2023-01-08T08:03:21;6.80;99.90
53876;DHT22;39789;53.216;5.624;2023-01-08T08:05:47;6.80;99.90
53876;DHT22;39789;53.216;5.624;2023-01-08T08:08:13;6.80;99.90
53876;DHT22;39789;53.216;5.624;2023-01-08T08:10:40;6.80;99.90
53876;DHT22;39789;53.216;5.624;2023-01-08T08:13:07;6.80;99.90
53876;DHT22;39789;53.216;5.624;2023-01-08T08:15:34;6.80;99.90
53876;DHT22;39789;53.216;5.624;2023-01-08T08:18:00;6.80;99.90
53876;DHT22;39789;53.216;5.624;2023-01-08T08:20:26;6.80;99.90
53876;DHT22;39789;53.216;5.624;2023-01-08T08:22:52;6.80;99.90
53876;DHT22;39789;53.216;5.624;2023-01-08T08:25:24;6.90;99.90
53876;DHT22;39789;53.216;5.624;2023-01-08T08:27:49;6.90;99.90
53876;DHT22;39789;53.216;5.624;2023-01-08T08:30:15;6.90;99.90
53876;DHT22;39789;53.216;5.624;2023-01-08T08:32:40;6.90;99.90
53876;DHT22;39789;53.216;5.624;2023-01-08T08:35:06;6.90;99.90
53876;DHT22;39789;53.216;5.624;2023-01-08T08:37:32;7.00;99.90
53876;DHT22;39789;53.216;5.624;2023-01-08T08:39:57;7.00;99.90
53876;DHT22;39789;53.216;5.624;2023-01-08T08:42:23;7.00;99.90
53876;DHT22;39789;53.216;5.624;2023-01-08T08:44:49;7.00;99.90
53876;DHT22;39789;53.216;5.624;2023-01-08T08:47:14;7.00;99.90
53876;DHT22;39789;53.216;5.624;2023-01-08T08:49:40;7.00;99.90
53876;DHT22;39789;53.216;5.624;2023-01-08T08:52:05;7.00;99.90
53876;DHT22;39789;53.216;5.624;2023-01-08T08:54:31;7.00;99.90
53876;DHT22;39789;53.216;5.624;2023-01-08T08:56:57;7.00;99.90
53876;DHT22;39789;53.216;5.624;2023-01-08T08:59:22;7.10;99.90
53876;DHT22;39789;53.216;5.624;2023-01-08T09:01:48;7.10;99.90
53876;DHT22;39789;53.216;5.624;2023-01-08T09:04:13;7.10;99.90
53876;DHT22;39789;53.216;5.624;2023-01-08T09:06:39;7.10;99.90
53876;DHT22;39789;53.216;5.624;2023-01-08T09:09:04;7.10;99.90
53876;DHT22;39789;53.216;5.624;2023-01-08T09:11:30;7.20;99.90
53876;DHT22;39789;53.216;5.624;2023-01-08T09:13:56;7.20;99.90
53876;DHT22;39789;53.216;5.624;2023-01-08T09:16:22;7.20;99.90
53876;DHT22;39789;53.216;5.624;2023-01-08T09:18:47;7.20;99.90
53876;DHT22;39789;53.216;5.624;2023-01-08T09:21:14;7.20;99.90
53876;DHT22;39789;53.216;5.624;2023-01-08T09:23:40;7.30;99.90
53876;DHT22;39789;53.216;5.624;2023-01-08T09:26:05;7.30;99.90
53876;DHT22;39789;53.216;5.624;2023-01-08T09:28:32;7.30;99.90
53876;DHT22;39789;53.216;5.624;2023-01-08T09:31:02;7.30;99.90
53876;DHT22;39789;53.216;5.624;2023-01-08T09:33:28;7.30;99.90
53876;DHT22;39789;53.216;5.624;2023-01-08T09:35:54;7.40;99.90
53876;DHT22;39789;53.216;5.624;2023-01-08T09:38:20;7.40;99.90
53876;DHT22;39789;53.216;5.624;2023-01-08T09:41:02;7.40;99.90
53876;DHT22;39789;53.216;5.624;2023-01-08T09:43:32;7.40;99.90
53876;DHT22;39789;53.216;5.624;2023-01-08T09:46:01;7.50;99.90
53876;DHT22;39789;53.216;5.624;2023-01-08T09:48:30;7.50;99.90
53876;DHT22;39789;53.216;5.624;2023-01-08T09:50:57;7.50;99.90
53876;DHT22;39789;53.216;5.624;2023-01-08T09:53:23;7.50;99.90
53876;DHT22;39789;53.216;5.624;2023-01-08T09:56:01;7.50;99.90
53876;DHT22;39789;53.216;5.624;2023-01-08T09:58:37;7.50;99.90
53876;DHT22;39789;53.216;5.624;2023-01-08T10:01:04;7.60;99.90
53876;DHT22;39789;53.216;5.624;2023-01-08T10:03:39;7.60;99.90
53876;DHT22;39789;53.216;5.624;2023-01-08T10:06:13;7.60;99.90
53876;DHT22;39789;53.216;5.624;2023-01-08T10:08:39;8.00;99.90
53876;DHT22;39789;53.216;5.624;2023-01-08T10:11:06;7.60;99.90
53876;DHT22;39789;53.216;5.624;2023-01-08T10:13:35;7.70;99.90
53876;DHT22;39789;53.216;5.624;2023-01-08T10:16:06;7.70;99.90
53876;DHT22;39789;53.216;5.624;2023-01-08T10:18:33;7.70;99.90
53876;DHT22;39789;53.216;5.624;2023-01-08T10:20:59;7.80;99.90
53876;DHT22;39789;53.216;5.624;2023-01-08T10:23:25;7.80;99.90
53876;DHT22;39789;53.216;5.624;2023-01-08T10:25:59;7.80;99.90
53876;DHT22;39789;53.216;5.624;2023-01-08T10:28:27;7.80;99.90
53876;DHT22;39789;53.216;5.624;2023-01-08T10:31:00;7.80;99.90
53876;DHT22;39789;53.216;5.624;2023-01-08T10:33:30;7.80;99.90
53876;DHT22;39789;53.216;5.624;2023-01-08T10:36:03;7.80;99.90
53876;DHT22;39789;53.216;5.624;2023-01-08T10:38:33;7.80;99.90
53876;DHT22;39789;53.216;5.624;2023-01-08T10:41:03;7.90;99.90
53876;DHT22;39789;53.216;5.624;2023-01-08T10:43:33;7.90;99.90
53876;DHT22;39789;53.216;5.624;2023-01-08T10:46:03;7.90;99.90
53876;DHT22;39789;53.216;5.624;2023-01-08T10:48:38;7.90;99.90
53876;DHT22;39789;53.216;5.624;2023-01-08T10:51:26;7.90;99.90
53876;DHT22;39789;53.216;5.624;2023-01-08T10:53:54;8.00;99.90
53876;DHT22;39789;53.216;5.624;2023-01-08T10:56:22;8.00;99.90
53876;DHT22;39789;53.216;5.624;2023-01-08T10:58:50;8.00;99.90
53876;DHT22;39789;53.216;5.624;2023-01-08T11:01:21;8.00;99.90
53876;DHT22;39789;53.216;5.624;2023-01-08T11:03:50;8.00;99.90
53876;DHT22;39789;53.216;5.624;2023-01-08T11:06:27;8.90;99.90
53876;DHT22;39789;53.216;5.624;2023-01-08T11:08:58;8.00;99.90
53876;DHT22;39789;53.216;5.624;2023-01-08T11:11:34;8.10;99.90
53876;DHT22;39789;53.216;5.624;2023-01-08T11:14:02;8.10;99.90
53876;DHT22;39789;53.216;5.624;2023-01-08T11:16:34;8.10;99.90
53876;DHT22;39789;53.216;5.624;2023-01-08T11:19:00;8.10;99.90
53876;DHT22;39789;53.216;5.624;2023-01-08T11:21:28;8.10;99.90
53876;DHT22;39789;53.216;5.624;2023-01-08T11:24:20;8.10;99.90
53876;DHT22;39789;53.216;5.624;2023-01-08T11:26:51;7.50;99.90
53876;DHT22;39789;53.216;5.624;2023-01-08T11:29:23;8.20;99.90
53876;DHT22;39789;53.216;5.624;2023-01-08T11:37:36;8.20;99.90
53876;DHT22;39789;53.216;5.624;2023-01-08T11:40:13;8.20;99.90
53876;DHT22;39789;53.216;5.624;2023-01-08T11:56:56;8.20;99.90
53876;DHT22;39789;53.216;5.624;2023-01-08T12:11:39;8.30;99.90
53876;DHT22;39789;53.216;5.624;2023-01-08T12:14:17;8.30;99.90
53876;DHT22;39789;53.216;5.624;2023-01-08T12:19:43;8.40;99.90
53876;DHT22;39789;53.216;5.624;2023-01-08T12:22:33;8.40;99.90
53876;DHT22;39789;53.216;5.624;2023-01-08T12:25:36;8.40;99.90
53876;DHT22;39789;53.216;5.624;2023-01-08T12:28:21;8.40;99.90
53876;DHT22;39789;53.216;5.624;2023-01-08T12:36:18;8.40;99.90
53876;DHT22;39789;53.216;5.624;2023-01-08T12:38:49;8.50;99.90
53876;DHT22;39789;53.216;5.624;2023-01-08T12:41:18;8.50;99.90
53876;DHT22;39789;53.216;5.624;2023-01-08T12:44:02;8.40;99.90
53876;DHT22;39789;53.216;5.624;2023-01-08T12:46:32;8.40;99.90
53876;DHT22;39789;53.216;5.624;2023-01-08T12:48:58;8.40;99.90
53876;DHT22;39789;53.216;5.624;2023-01-08T12:51:49;8.40;99.90
53876;DHT22;39789;53.216;5.624;2023-01-08T12:54:32;8.40;99.90
53876;DHT22;39789;53.216;5.624;2023-01-08T12:57:11;8.40;99.90
53876;DHT22;39789;53.216;5.624;2023-01-08T12:59:47;8.40;99.90
53876;DHT22;39789;53.216;5.624;2023-01-08T13:02:48;8.40;99.90
53876;DHT22;39789;53.216;5.624;2023-01-08T13:07:45;8.40;99.90
53876;DHT22;39789;53.216;5.624;2023-01-08T13:13:39;8.40;99.90
53876;DHT22;39789;53.216;5.624;2023-01-08T13:18:39;8.50;99.90
53876;DHT22;39789;53.216;5.624;2023-01-08T13:21:06;8.50;99.90
53876;DHT22;39789;53.216;5.624;2023-01-08T13:23:34;8.70;99.90
53876;DHT22;39789;53.216;5.624;2023-01-08T13:26:03;8.50;99.90
53876;DHT22;39789;53.216;5.624;2023-01-08T13:32:01;8.50;99.90
53876;DHT22;39789;53.216;5.624;2023-01-08T13:34:38;8.50;99.90
53876;DHT22;39789;53.216;5.624;2023-01-08T13:40:50;8.50;99.90
53876;DHT22;39789;53.216;5.624;2023-01-08T13:43:29;8.50;99.90
53876;DHT22;39789;53.216;5.624;2023-01-08T13:48:38;8.50;99.90
53876;DHT22;39789;53.216;5.624;2023-01-08T13:51:05;8.50;99.90
53876;DHT22;39789;53.216;5.624;2023-01-08T13:53:31;8.50;99.90
53876;DHT22;39789;53.216;5.624;2023-01-08T13:58:26;8.50;99.90
53876;DHT22;39789;53.216;5.624;2023-01-08T14:00:54;8.50;99.90
53876;DHT22;39789;53.216;5.624;2023-01-08T14:03:29;8.40;99.90
53876;DHT22;39789;53.216;5.624;2023-01-08T14:08:30;8.40;99.90
53876;DHT22;39789;53.216;5.624;2023-01-08T14:10:56;8.30;99.90
53876;DHT22;39789;53.216;5.624;2023-01-08T14:13:26;8.30;99.90
53876;DHT22;39789;53.216;5.624;2023-01-08T14:16:01;8.30;99.90
53876;DHT22;39789;53.216;5.624;2023-01-08T14:18:28;8.30;99.90
53876;DHT22;39789;53.216;5.624;2023-01-08T14:20:54;8.40;99.90
53876;DHT22;39789;53.216;5.624;2023-01-08T14:23:26;9.80;99.90
53876;DHT22;39789;53.216;5.624;2023-01-08T14:25:55;8.50;99.90
53876;DHT22;39789;53.216;5.624;2023-01-08T14:28:22;8.60;99.90
53876;DHT22;39789;53.216;5.624;2023-01-08T14:30:55;9.40;99.90
53876;DHT22;39789;53.216;5.624;2023-01-08T14:33:35;8.40;99.90
53876;DHT22;39789;53.216;5.624;2023-01-08T14:36:03;8.40;99.90
53876;DHT22;39789;53.216;5.624;2023-01-08T14:38:30;8.30;99.90
53876;DHT22;39789;53.216;5.624;2023-01-08T14:41:08;8.10;99.90
53876;DHT22;39789;53.216;5.624;2023-01-08T14:43:41;8.30;99.90
53876;DHT22;39789;53.216;5.624;2023-01-08T14:46:25;8.20;99.90
53876;DHT22;39789;53.216;5.624;2023-01-08T14:48:55;8.20;99.90
53876;DHT22;39789;53.216;5.624;2023-01-08T14:51:26;8.20;99.90
53876;DHT22;39789;53.216;5.624;2023-01-08T14:53:57;8.20;99.90
53876;DHT22;39789;53.216;5.624;2023-01-08T14:56:31;8.40;99.90
53876;DHT22;39789;53.216;5.624;2023-01-08T14:58:58;8.00;99.90
53876;DHT22;39789;53.216;5.624;2023-01-08T15:01:28;8.00;99.90
53876;DHT22;39789;53.216;5.624;2023-01-08T15:06:34;7.90;99.90
53876;DHT22;39789;53.216;5.624;2023-01-08T15:09:00;7.90;99.90
53876;DHT22;39789;53.216;5.624;2023-01-08T15:11:30;7.90;99.90
53876;DHT22;39789;53.216;5.624;2023-01-08T15:13:56;7.90;99.90
53876;DHT22;39789;53.216;5.624;2023-01-08T15:16:32;7.80;99.90
53876;DHT22;39789;53.216;5.624;2023-01-08T15:19:05;7.80;99.90
53876;DHT22;39789;53.216;5.624;2023-01-08T15:21:32;7.70;99.90
53876;DHT22;39789;53.216;5.624;2023-01-08T15:23:59;8.30;99.90
53876;DHT22;39789;53.216;5.624;2023-01-08T15:26:27;7.60;99.90
53876;DHT22;39789;53.216;5.624;2023-01-08T15:29:03;7.50;99.90
53876;DHT22;39789;53.216;5.624;2023-01-08T15:34:07;7.40;99.90
53876;DHT22;39789;53.216;5.624;2023-01-08T15:36:32;7.30;99.90
53876;DHT22;39789;53.216;5.624;2023-01-08T15:38:58;7.30;99.90
53876;DHT22;39789;53.216;5.624;2023-01-08T15:41:23;7.20;99.90
53876;DHT22;39789;53.216;5.624;2023-01-08T15:44:09;7.20;99.90
53876;DHT22;39789;53.216;5.624;2023-01-08T15:46:37;7.20;99.90
53876;DHT22;39789;53.216;5.624;2023-01-08T15:49:03;7.20;99.90
53876;DHT22;39789;53.216;5.624;2023-01-08T15:51:33;7.20;99.90
53876;DHT22;39789;53.216;5.624;2023-01-08T15:53:59;7.30;99.90
53876;DHT22;39789;53.216;5.624;2023-01-08T15:56:25;7.20;99.90
53876;DHT22;39789;53.216;5.624;2023-01-08T15:58:51;7.20;99.90
53876;DHT22;39789;53.216;5.624;2023-01-08T16:01:17;7.20;99.90
53876;DHT22;39789;53.216;5.624;2023-01-08T16:03:43;7.10;99.90
53876;DHT22;39789;53.216;5.624;2023-01-08T16:06:09;7.10;99.90
53876;DHT22;39789;53.216;5.624;2023-01-08T16:08:35;7.10;99.90
53876;DHT22;39789;53.216;5.624;2023-01-08T16:11:01;7.00;99.90
53876;DHT22;39789;53.216;5.624;2023-01-08T16:13:27;7.00;99.90
53876;DHT22;39789;53.216;5.624;2023-01-08T16:15:52;7.00;99.90
53876;DHT22;39789;53.216;5.624;2023-01-08T16:18:19;7.00;99.90
53876;DHT22;39789;53.216;5.624;2023-01-08T16:20:45;7.00;99.90
53876;DHT22;39789;53.216;5.624;2023-01-08T16:23:10;7.00;99.90
53876;DHT22;39789;53.216;5.624;2023-01-08T16:25:38;7.00;99.90
53876;DHT22;39789;53.216;5.624;2023-01-08T16:28:03;6.90;99.90
53876;DHT22;39789;53.216;5.624;2023-01-08T16:30:29;7.00;99.90
53876;DHT22;39789;53.216;5.624;2023-01-08T16:32:55;7.00;99.90
53876;DHT22;39789;53.216;5.624;2023-01-08T16:35:21;6.90;99.90
53876;DHT22;39789;53.216;5.624;2023-01-08T16:37:47;6.90;99.90
53876;DHT22;39789;53.216;5.624;2023-01-08T16:40:13;6.90;99.90
53876;DHT22;39789;53.216;5.624;2023-01-08T16:42:39;6.90;99.90
53876;DHT22;39789;53.216;5.624;2023-01-08T16:45:06;6.90;99.90
53876;DHT22;39789;53.216;5.624;2023-01-08T16:47:36;6.80;99.90
53876;DHT22;39789;53.216;5.624;2023-01-08T16:50:02;6.90;99.90
53876;DHT22;39789;53.216;5.624;2023-01-08T16:52:28;6.70;99.90
53876;DHT22;39789;53.216;5.624;2023-01-08T16:54:53;6.70;99.90
53876;DHT22;39789;53.216;5.624;2023-01-08T16:57:19;6.70;99.90
53876;DHT22;39789;53.216;5.624;2023-01-08T16:59:44;6.70;99.90
53876;DHT22;39789;53.216;5.624;2023-01-08T17:02:10;6.60;99.90
53876;DHT22;39789;53.216;5.624;2023-01-08T17:04:36;6.60;99.90
53876;DHT22;39789;53.216;5.624;2023-01-08T17:07:01;6.60;99.90
53876;DHT22;39789;53.216;5.624;2023-01-08T17:09:27;6.60;99.90
53876;DHT22;39789;53.216;5.624;2023-01-08T17:11:53;6.60;99.90
53876;DHT22;39789;53.216;5.624;2023-01-08T17:14:18;6.60;99.90